Weather at Brindisi Airport

Public forecast

Using degrees Celsius for public forecast. Weather courtesy of forecast.io.

Current aviation weather report (METAR) for Brindisi Airport

2024/05/29 11:20 (retrieved 16 minutes ago)

LIBR 291120Z 06009KT 9999 VCSH FEW015 23/16 Q1013

Aviation forecast (TAF) for Brindisi Airport

2024/05/29 06:00 (retrieved 6 hours ago)

TAF LIBR 290500Z 2906/3006 VRB04KT 9999 FEW025 PROB40 TEMPO 2906/2910 TSRA BECMG 2909/2911 03010KT BECMG 2915/2917 VRB05KT PROB40 TEMPO 2923/3005 1500 BCFG BKN008